Aviation Digital Data Service (ADDS)

Output produced by METARs form (1335 UTC 26 May 2018)
found at http://www.aviationweather.gov/adds/metars/
 
LOWG 261320Z 14004KT 100V180 9999 FEW038 24/15 Q1021 NOSIG
TAF LOWG 261115Z 2612/2712 14006KT 9999 FEW050 TX25/2712Z TN13/2703Z 
     TEMPO 2613/2617 FEW050 FEW050TCU SCT300 
     TEMPO 2700/2705 3000 BCFG NSC 
     PROB40 
     TEMPO 2701/2704 0400 BCFG SCT001 
     BECMG 2710/2712 FEW050 FEW050TCU
       
LOWI 261320Z 07006KT 040V110 9999 FEW070 SCT300 28/08 Q1018 NOSIG
TAF LOWI 261115Z 2612/2712 09005KT 9999 FEW060 SCT300 TX28/2614Z TN14/2704Z 
     TEMPO 2613/2617 09012G25KT FEW060CB 
     BECMG 2618/2620 VRB02KT CAVOK 
     BECMG 2709/2711 12008KT 9999 FEW060 SCT100
       
LOWK 261320Z 07006KT 030V120 9999 FEW040 24/14 Q1021 NOSIG
TAF LOWK 261115Z 2612/2712 VRB02KT 9999 FEW050 TX25/2615Z TN14/2703Z 
     TEMPO 2613/2618 13007KT FEW050 FEW050CB SCT300 
     PROB30 
     TEMPO 2703/2707 4000 BCFG BKN006 
     TEMPO 2710/2712 FEW050CB SCT060 BKN300
       
LOWL 261320Z 11005KT 050V210 9999 FEW060 FEW060TCU 26/12 Q1020 NOSIG
TAF LOWL 261115Z 2612/2712 08004KT 9999 FEW040 SCT300 TX27/2712Z TN13/2703Z 
     TEMPO 2612/2617 09009KT 
     PROB40 
     TEMPO 2702/2706 VRB02KT 3000 BR NSC 
     TEMPO 2708/2712 09010KT
       
LOWS 261320Z 31007KT 260V340 9999 FEW060 BKN300 26/11 Q1020 NOSIG
TAF AMD LOWS 261319Z 2613/2712 02006KT 9999 FEW060 SCT300 TX27/2712Z TN14/2703Z 
     TEMPO 2613/2617 32007KT 
     BECMG 2618/2620 15005KT CAVOK 
     BECMG 2707/2709 03006KT 9999 FEW060 BKN300
       
LOWW 261320Z 15004KT 090V210 9999 FEW040 25/14 Q1021 NOSIG
TAF LOWW 261115Z 2612/2718 10005KT 9999 FEW035 TX27/2613Z TN15/2702Z 
     BECMG 2617/2619 VRB02KT CAVOK 
     BECMG 2709/2711 13007KT 9999 FEW045 
     PROB40 
     TEMPO 2714/2718 FEW050CB
       
LOAV 261300Z 07010KT 25KM SCT030CU FEW030TCU 24/12
LOAN 261300Z 12007KT 25KM FEW025CU SCT035CU
LOXZ 261320Z 10009KT 30KM SCT050CU 23/13 Q1021 NOSIG